Stonington, Indiana
Current Conditions -  °F | °C
As of 8:53 AM on Sunday 23 Nov 2014 (Local Time) from KBMG Reporting Station
Broken Clouds Broken Clouds  
Wind Chill: 51°   Ceiling: 6500
Heat Index: 51°   Visibility: 10mi
Dew Point: 40°   Wind: 9mph
Humidity: 66%   Direction: 160°SSE
Pressure: 29.88"   Gusts: NA
Location:  38.7366°N, 86.4546°W
Report Text: KBMG 231353Z 16008KT 10SM BKN065 11/04 A2988 RMK AO2 SLP117 T01060044
Loading
Personal Weather Stations






























Interactive Weather Map New forecast layout! Learn more

10-Day Weather Forecast

Advertisements
Track Severe Weather on mobile